sensor_id;sensor_type;location;lat;lon;timestamp;pressure;altitude;pressure_sealevel;temperature;humidity
52535;BME280;38443;53.164;5.802;2023-09-19T00:02:04;100617.13;;;12.94;100.00
52535;BME280;38443;53.164;5.802;2023-09-19T00:04:31;100618.06;;;12.93;100.00
52535;BME280;38443;53.164;5.802;2023-09-19T00:06:58;100626.88;;;12.97;100.00
52535;BME280;38443;53.164;5.802;2023-09-19T00:09:23;100629.34;;;13.02;100.00
52535;BME280;38443;53.164;5.802;2023-09-19T00:11:51;100633.66;;;13.06;100.00
52535;BME280;38443;53.164;5.802;2023-09-19T00:14:16;100625.66;;;13.04;100.00
52535;BME280;38443;53.164;5.802;2023-09-19T00:16:42;100626.47;;;13.06;100.00
52535;BME280;38443;53.164;5.802;2023-09-19T00:19:07;100622.03;;;13.05;100.00
52535;BME280;38443;53.164;5.802;2023-09-19T00:21:34;100619.47;;;13.02;100.00
52535;BME280;38443;53.164;5.802;2023-09-19T00:23:59;100621.41;;;12.98;100.00
52535;BME280;38443;53.164;5.802;2023-09-19T00:26:25;100618.88;;;12.95;100.00
52535;BME280;38443;53.164;5.802;2023-09-19T00:28:52;100624.63;;;12.86;100.00
52535;BME280;38443;53.164;5.802;2023-09-19T00:31:17;100614.16;;;12.80;100.00
52535;BME280;38443;53.164;5.802;2023-09-19T00:33:43;100610.66;;;12.78;100.00
52535;BME280;38443;53.164;5.802;2023-09-19T00:36:08;100623.41;;;12.73;100.00
52535;BME280;38443;53.164;5.802;2023-09-19T00:38:33;100613.78;;;12.67;100.00
52535;BME280;38443;53.164;5.802;2023-09-19T00:40:59;100620.16;;;12.65;100.00
52535;BME280;38443;53.164;5.802;2023-09-19T00:43:25;100620.34;;;12.60;100.00
52535;BME280;38443;53.164;5.802;2023-09-19T00:45:53;100622.47;;;12.52;100.00
52535;BME280;38443;53.164;5.802;2023-09-19T00:48:21;100614.78;;;12.43;100.00
52535;BME280;38443;53.164;5.802;2023-09-19T00:50:47;100628.03;;;12.47;100.00
52535;BME280;38443;53.164;5.802;2023-09-19T00:53:15;100625.47;;;12.44;100.00
52535;BME280;38443;53.164;5.802;2023-09-19T00:55:44;100634.47;;;12.43;100.00
52535;BME280;38443;53.164;5.802;2023-09-19T00:58:10;100631.03;;;12.40;100.00
52535;BME280;38443;53.164;5.802;2023-09-19T01:00:37;100627.66;;;12.34;100.00
52535;BME280;38443;53.164;5.802;2023-09-19T01:03:03;100625.09;;;12.31;100.00
52535;BME280;38443;53.164;5.802;2023-09-19T01:05:29;100622.66;;;12.25;100.00
52535;BME280;38443;53.164;5.802;2023-09-19T01:07:55;100627.03;;;12.28;100.00
52535;BME280;38443;53.164;5.802;2023-09-19T01:10:21;100635.13;;;12.26;100.00
52535;BME280;38443;53.164;5.802;2023-09-19T01:23:35;100637.66;;;12.31;100.00
52535;BME280;38443;53.164;5.802;2023-09-19T01:29:45;100646.94;;;12.44;100.00
52535;BME280;38443;53.164;5.802;2023-09-19T01:32:05;100659.44;;;12.45;100.00
52535;BME280;38443;53.164;5.802;2023-09-19T01:37:20;100666.13;;;12.35;100.00
52535;BME280;38443;53.164;5.802;2023-09-19T01:40:03;100679.03;;;12.25;100.00
52535;BME280;38443;53.164;5.802;2023-09-19T01:45:08;100680.31;;;12.15;100.00
52535;BME280;38443;53.164;5.802;2023-09-19T01:47:42;100676.97;;;12.08;100.00
52535;BME280;38443;53.164;5.802;2023-09-19T01:50:59;100673.66;;;12.02;100.00
52535;BME280;38443;53.164;5.802;2023-09-19T01:53:33;100673.59;;;12.03;100.00
52535;BME280;38443;53.164;5.802;2023-09-19T01:56:01;100679.75;;;12.07;100.00
52535;BME280;38443;53.164;5.802;2023-09-19T01:58:35;100677.91;;;12.07;100.00
52535;BME280;38443;53.164;5.802;2023-09-19T02:01:04;100672.59;;;12.06;100.00
52535;BME280;38443;53.164;5.802;2023-09-19T02:03:31;100672.66;;;12.04;100.00
52535;BME280;38443;53.164;5.802;2023-09-19T02:05:56;100665.50;;;12.05;100.00
52535;BME280;38443;53.164;5.802;2023-09-19T02:08:22;100666.31;;;12.07;100.00
52535;BME280;38443;53.164;5.802;2023-09-19T02:10:52;100673.47;;;12.06;100.00
52535;BME280;38443;53.164;5.802;2023-09-19T02:13:22;100673.66;;;12.02;100.00
52535;BME280;38443;53.164;5.802;2023-09-19T02:15:53;100674.41;;;12.05;100.00
52535;BME280;38443;53.164;5.802;2023-09-19T02:18:18;100683.28;;;12.07;100.00
52535;BME280;38443;53.164;5.802;2023-09-19T02:20:45;100667.06;;;12.10;100.00
52535;BME280;38443;53.164;5.802;2023-09-19T02:23:12;100660.63;;;12.14;100.00
52535;BME280;38443;53.164;5.802;2023-09-19T02:25:37;100661.44;;;12.16;100.00
52535;BME280;38443;53.164;5.802;2023-09-19T02:28:04;100668.44;;;12.21;100.00
52535;BME280;38443;53.164;5.802;2023-09-19T02:30:31;100677.97;;;12.29;100.00
52535;BME280;38443;53.164;5.802;2023-09-19T02:32:56;100677.59;;;12.38;100.00
52535;BME280;38443;53.164;5.802;2023-09-19T02:35:21;100679.09;;;12.46;100.00
52535;BME280;38443;53.164;5.802;2023-09-19T02:37:48;100676.31;;;12.49;100.00
52535;BME280;38443;53.164;5.802;2023-09-19T02:40:14;100674.31;;;12.54;100.00
52535;BME280;38443;53.164;5.802;2023-09-19T02:42:46;100682.41;;;12.52;100.00
52535;BME280;38443;53.164;5.802;2023-09-19T02:45:18;100684.53;;;12.44;100.00
52535;BME280;38443;53.164;5.802;2023-09-19T02:47:44;100685.38;;;12.45;100.00
52535;BME280;38443;53.164;5.802;2023-09-19T02:50:10;100681.91;;;12.43;100.00
52535;BME280;38443;53.164;5.802;2023-09-19T02:52:41;100683.84;;;12.39;100.00
52535;BME280;38443;53.164;5.802;2023-09-19T02:55:11;100680.22;;;12.40;100.00
52535;BME280;38443;53.164;5.802;2023-09-19T02:57:39;100678.47;;;12.39;100.00
52535;BME280;38443;53.164;5.802;2023-09-19T03:00:08;100669.63;;;12.37;100.00
52535;BME280;38443;53.164;5.802;2023-09-19T03:02:36;100668.00;;;12.33;100.00
52535;BME280;38443;53.164;5.802;2023-09-19T03:05:01;100661.97;;;12.26;100.00
52535;BME280;38443;53.164;5.802;2023-09-19T03:07:28;100669.16;;;12.26;100.00
52535;BME280;38443;53.164;5.802;2023-09-19T03:09:53;100680.94;;;12.22;100.00
52535;BME280;38443;53.164;5.802;2023-09-19T03:12:20;100672.19;;;12.16;100.00
52535;BME280;38443;53.164;5.802;2023-09-19T03:14:45;100676.69;;;12.16;100.00
52535;BME280;38443;53.164;5.802;2023-09-19T03:17:10;100681.94;;;12.19;100.00
52535;BME280;38443;53.164;5.802;2023-09-19T03:19:36;100681.94;;;12.19;100.00
52535;BME280;38443;53.164;5.802;2023-09-19T03:22:04;100682.81;;;12.20;100.00
52535;BME280;38443;53.164;5.802;2023-09-19T03:24:29;100689.03;;;12.20;100.00
52535;BME280;38443;53.164;5.802;2023-09-19T03:26:56;100677.53;;;12.16;100.00
52535;BME280;38443;53.164;5.802;2023-09-19T03:29:22;100669.44;;;12.18;100.00
52535;BME280;38443;53.164;5.802;2023-09-19T03:31:47;100669.44;;;12.18;100.00
52535;BME280;38443;53.164;5.802;2023-09-19T03:34:13;100673.81;;;12.21;100.00
52535;BME280;38443;53.164;5.802;2023-09-19T03:36:38;100683.63;;;12.22;100.00
52535;BME280;38443;53.164;5.802;2023-09-19T03:39:04;100680.94;;;12.22;100.00
52535;BME280;38443;53.164;5.802;2023-09-19T03:41:31;100683.56;;;12.23;100.00
52535;BME280;38443;53.164;5.802;2023-09-19T03:43:56;100695.06;;;12.27;100.00
52535;BME280;38443;53.164;5.802;2023-09-19T03:46:22;100699.66;;;12.23;100.00
52535;BME280;38443;53.164;5.802;2023-09-19T03:48:47;100698.72;;;12.24;100.00
52535;BME280;38443;53.164;5.802;2023-09-19T03:51:12;100699.72;;;12.22;100.00
52535;BME280;38443;53.164;5.802;2023-09-19T03:53:37;100697.97;;;12.21;100.00
52535;BME280;38443;53.164;5.802;2023-09-19T03:56:03;100695.13;;;12.25;100.00
52535;BME280;38443;53.164;5.802;2023-09-19T03:58:28;100702.06;;;12.31;100.00
52535;BME280;38443;53.164;5.802;2023-09-19T04:00:57;100694.88;;;12.31;100.00
52535;BME280;38443;53.164;5.802;2023-09-19T04:03:23;100705.19;;;12.42;100.00
52535;BME280;38443;53.164;5.802;2023-09-19T04:05:50;100716.63;;;12.47;100.00
52535;BME280;38443;53.164;5.802;2023-09-19T04:08:15;100708.44;;;12.50;100.00
52535;BME280;38443;53.164;5.802;2023-09-19T04:10:44;100708.34;;;12.53;100.00
52535;BME280;38443;53.164;5.802;2023-09-19T04:13:10;100692.91;;;12.58;100.00
52535;BME280;38443;53.164;5.802;2023-09-19T04:15:36;100697.34;;;12.60;100.00
52535;BME280;38443;53.164;5.802;2023-09-19T04:18:02;100692.84;;;12.60;100.00
52535;BME280;38443;53.164;5.802;2023-09-19T04:20:28;100702.72;;;12.60;100.00
52535;BME280;38443;53.164;5.802;2023-09-19T04:22:54;100702.72;;;12.60;100.00
52535;BME280;38443;53.164;5.802;2023-09-19T04:25:20;100701.75;;;12.61;100.00
52535;BME280;38443;53.164;5.802;2023-09-19T04:27:46;100698.97;;;12.64;100.00
52535;BME280;38443;53.164;5.802;2023-09-19T04:30:14;100706.03;;;12.66;100.00
52535;BME280;38443;53.164;5.802;2023-09-19T04:32:40;100699.88;;;12.63;100.00
52535;BME280;38443;53.164;5.802;2023-09-19T04:35:09;100687.38;;;12.63;100.00
52535;BME280;38443;53.164;5.802;2023-09-19T04:37:39;100689.91;;;12.66;100.00
52535;BME280;38443;53.164;5.802;2023-09-19T04:40:07;100698.00;;;12.65;100.00
52535;BME280;38443;53.164;5.802;2023-09-19T04:42:35;100706.06;;;12.65;100.00
52535;BME280;38443;53.164;5.802;2023-09-19T04:45:00;100699.78;;;12.66;100.00
52535;BME280;38443;53.164;5.802;2023-09-19T04:47:26;100693.53;;;12.65;100.00
52535;BME280;38443;53.164;5.802;2023-09-19T04:49:51;100708.69;;;12.66;100.00
52535;BME280;38443;53.164;5.802;2023-09-19T04:52:16;100706.88;;;12.67;100.00
52535;BME280;38443;53.164;5.802;2023-09-19T04:54:42;100710.53;;;12.66;100.00
52535;BME280;38443;53.164;5.802;2023-09-19T04:57:07;100702.41;;;12.67;100.00
52535;BME280;38443;53.164;5.802;2023-09-19T04:59:32;100702.31;;;12.69;100.00
52535;BME280;38443;53.164;5.802;2023-09-19T05:01:58;100701.41;;;12.70;100.00
52535;BME280;38443;53.164;5.802;2023-09-19T05:04:24;100700.41;;;12.72;100.00
52535;BME280;38443;53.164;5.802;2023-09-19T05:06:49;100705.59;;;12.77;100.00
52535;BME280;38443;53.164;5.802;2023-09-19T05:09:14;100717.22;;;12.77;100.00
52535;BME280;38443;53.164;5.802;2023-09-19T05:11:40;100715.34;;;12.80;100.00
52535;BME280;38443;53.164;5.802;2023-09-19T05:14:06;100715.41;;;12.78;100.00
52535;BME280;38443;53.164;5.802;2023-09-19T05:16:31;100720.56;;;12.83;100.00
52535;BME280;38443;53.164;5.802;2023-09-19T05:18:57;100717.06;;;12.81;100.00
52535;BME280;38443;53.164;5.802;2023-09-19T05:21:25;100725.06;;;12.82;100.00
52535;BME280;38443;53.164;5.802;2023-09-19T05:23:54;100724.16;;;12.83;100.00
52535;BME280;38443;53.164;5.802;2023-09-19T05:26:19;100726.75;;;12.85;100.00
52535;BME280;38443;53.164;5.802;2023-09-19T05:28:44;100725.94;;;12.83;100.00
52535;BME280;38443;53.164;5.802;2023-09-19T05:31:10;100740.31;;;12.82;100.00
52535;BME280;38443;53.164;5.802;2023-09-19T05:33:35;100730.59;;;12.79;100.00
52535;BME280;38443;53.164;5.802;2023-09-19T05:36:00;100724.22;;;12.82;100.00
52535;BME280;38443;53.164;5.802;2023-09-19T05:38:25;100725.94;;;12.83;100.00
52535;BME280;38443;53.164;5.802;2023-09-19T05:40:52;100723.16;;;12.86;100.00
52535;BME280;38443;53.164;5.802;2023-09-19T05:43:18;100730.16;;;12.90;100.00
52535;BME280;38443;53.164;5.802;2023-09-19T05:45:44;100726.44;;;12.92;100.00
52535;BME280;38443;53.164;5.802;2023-09-19T05:48:11;100735.31;;;12.94;100.00
52535;BME280;38443;53.164;5.802;2023-09-19T05:50:39;100743.31;;;12.96;100.00
52535;BME280;38443;53.164;5.802;2023-09-19T05:53:05;100742.47;;;12.95;100.00
52535;BME280;38443;53.164;5.802;2023-09-19T05:55:31;100753.19;;;12.95;100.00
52535;BME280;38443;53.164;5.802;2023-09-19T05:57:56;100742.41;;;12.97;100.00
52535;BME280;38443;53.164;5.802;2023-09-19T06:00:23;100748.59;;;12.99;100.00
52535;BME280;38443;53.164;5.802;2023-09-19T06:02:56;100745.69;;;13.04;100.00
52535;BME280;38443;53.164;5.802;2023-09-19T06:05:23;100749.00;;;13.10;100.00
52535;BME280;38443;53.164;5.802;2023-09-19T06:07:48;100747.19;;;13.11;100.00
52535;BME280;38443;53.164;5.802;2023-09-19T06:10:15;100757.81;;;13.14;100.00
52535;BME280;38443;53.164;5.802;2023-09-19T06:12:42;100758.69;;;13.14;100.00
52535;BME280;38443;53.164;5.802;2023-09-19T06:15:11;100743.47;;;13.15;100.00
52535;BME280;38443;53.164;5.802;2023-09-19T06:18:10;100748.13;;;13.10;100.00
52535;BME280;38443;53.164;5.802;2023-09-19T06:20:39;100740.56;;;13.20;100.00
52535;BME280;38443;53.164;5.802;2023-09-19T06:23:09;100750.19;;;13.25;100.00
52535;BME280;38443;53.164;5.802;2023-09-19T06:25:35;100741.19;;;13.26;100.00
52535;BME280;38443;53.164;5.802;2023-09-19T06:28:00;100747.41;;;13.27;100.00
52535;BME280;38443;53.164;5.802;2023-09-19T06:30:29;100757.22;;;13.29;100.00
52535;BME280;38443;53.164;5.802;2023-09-19T06:32:59;100748.31;;;13.27;100.00
52535;BME280;38443;53.164;5.802;2023-09-19T06:35:26;100751.44;;;13.39;100.00
52535;BME280;38443;53.164;5.802;2023-09-19T06:37:51;100744.53;;;13.53;100.00
52535;BME280;38443;53.164;5.802;2023-09-19T06:40:18;100743.84;;;13.69;100.00
52535;BME280;38443;53.164;5.802;2023-09-19T06:42:45;100745.88;;;13.84;100.00
52535;BME280;38443;53.164;5.802;2023-09-19T06:45:11;100743.78;;;13.91;100.00
52535;BME280;38443;53.164;5.802;2023-09-19T06:47:39;100742.69;;;13.95;100.00
52535;BME280;38443;53.164;5.802;2023-09-19T06:50:05;100742.84;;;13.92;100.00
52535;BME280;38443;53.164;5.802;2023-09-19T06:52:31;100736.31;;;13.98;100.00
52535;BME280;38443;53.164;5.802;2023-09-19T06:54:58;100746.94;;;14.01;100.00
52535;BME280;38443;53.164;5.802;2023-09-19T06:57:23;100758.59;;;14.01;100.00
52535;BME280;38443;53.164;5.802;2023-09-19T06:59:49;100747.56;;;14.07;100.00
52535;BME280;38443;53.164;5.802;2023-09-19T07:02:15;100756.56;;;14.06;100.00
52535;BME280;38443;53.164;5.802;2023-09-19T07:04:40;100751.03;;;14.09;100.00
52535;BME280;38443;53.164;5.802;2023-09-19T07:07:06;100745.28;;;14.17;100.00
52535;BME280;38443;53.164;5.802;2023-09-19T07:09:32;100742.25;;;14.25;100.00
52535;BME280;38443;53.164;5.802;2023-09-19T07:11:57;100738.09;;;14.18;100.00
52535;BME280;38443;53.164;5.802;2023-09-19T07:14:23;100744.19;;;14.21;100.00
52535;BME280;38443;53.164;5.802;2023-09-19T07:16:48;100751.34;;;14.22;100.00
52535;BME280;38443;53.164;5.802;2023-09-19T07:19:14;100754.91;;;14.23;100.00
52535;BME280;38443;53.164;5.802;2023-09-19T07:21:42;100756.72;;;14.22;100.00
52535;BME280;38443;53.164;5.802;2023-09-19T07:24:08;100752.25;;;14.42;100.00
52535;BME280;38443;53.164;5.802;2023-09-19T07:26:34;100756.84;;;14.59;100.00
52535;BME280;38443;53.164;5.802;2023-09-19T07:28:59;100752.19;;;14.81;100.00
52535;BME280;38443;53.164;5.802;2023-09-19T07:31:27;100755.59;;;15.21;100.00
52535;BME280;38443;53.164;5.802;2023-09-19T07:33:53;100749.47;;;15.54;100.00
52535;BME280;38443;53.164;5.802;2023-09-19T07:36:19;100733.41;;;16.03;100.00
52535;BME280;38443;53.164;5.802;2023-09-19T07:38:45;100726.47;;;16.80;100.00
52535;BME280;38443;53.164;5.802;2023-09-19T07:41:10;100735.25;;;17.46;100.00
52535;BME280;38443;53.164;5.802;2023-09-19T07:43:35;100729.63;;;17.95;100.00
52535;BME280;38443;53.164;5.802;2023-09-19T07:46:05;100726.13;;;18.36;100.00
52535;BME280;38443;53.164;5.802;2023-09-19T07:48:32;100721.47;;;18.52;100.00
52535;BME280;38443;53.164;5.802;2023-09-19T07:51:02;100723.63;;;18.33;100.00
52535;BME280;38443;53.164;5.802;2023-09-19T07:53:27;100716.97;;;18.24;100.00
52535;BME280;38443;53.164;5.802;2023-09-19T07:56:01;100727.78;;;17.65;100.00
52535;BME280;38443;53.164;5.802;2023-09-19T07:58:27;100718.44;;;17.41;100.00
52535;BME280;38443;53.164;5.802;2023-09-19T08:00:52;100717.47;;;17.11;100.00
52535;BME280;38443;53.164;5.802;2023-09-19T08:03:17;100715.72;;;16.63;100.00
52535;BME280;38443;53.164;5.802;2023-09-19T08:05:44;100718.06;;;16.37;100.00
52535;BME280;38443;53.164;5.802;2023-09-19T08:08:10;100719.44;;;16.28;100.00
52535;BME280;38443;53.164;5.802;2023-09-19T08:10:38;100732.06;;;16.12;100.00
52535;BME280;38443;53.164;5.802;2023-09-19T08:13:07;100737.47;;;15.94;100.00
52535;BME280;38443;53.164;5.802;2023-09-19T08:15:36;100726.38;;;15.83;100.00
52535;BME280;38443;53.164;5.802;2023-09-19T08:18:09;100739.25;;;15.78;100.00
52535;BME280;38443;53.164;5.802;2023-09-19T08:20:35;100739.56;;;15.72;100.00
52535;BME280;38443;53.164;5.802;2023-09-19T08:23:03;100738.13;;;15.82;100.00
52535;BME280;38443;53.164;5.802;2023-09-19T08:25:28;100721.69;;;15.87;100.00
52535;BME280;38443;53.164;5.802;2023-09-19T08:27:55;100721.66;;;16.04;100.00
52535;BME280;38443;53.164;5.802;2023-09-19T08:30:23;100725.78;;;16.27;100.00
52535;BME280;38443;53.164;5.802;2023-09-19T08:32:56;100714.88;;;16.62;100.00
52535;BME280;38443;53.164;5.802;2023-09-19T08:35:23;100718.03;;;16.86;100.00
52535;BME280;38443;53.164;5.802;2023-09-19T08:37:49;100709.88;;;17.18;100.00
52535;BME280;38443;53.164;5.802;2023-09-19T08:40:14;100701.16;;;17.43;100.00
52535;BME280;38443;53.164;5.802;2023-09-19T08:42:50;100702.84;;;17.60;100.00
52535;BME280;38443;53.164;5.802;2023-09-19T08:45:15;100706.88;;;17.83;100.00
52535;BME280;38443;53.164;5.802;2023-09-19T08:47:46;100701.78;;;17.63;100.00
52535;BME280;38443;53.164;5.802;2023-09-19T08:50:27;100712.59;;;17.48;100.00
52535;BME280;38443;53.164;5.802;2023-09-19T08:52:56;100709.34;;;17.42;100.00
52535;BME280;38443;53.164;5.802;2023-09-19T08:55:29;100703.91;;;17.27;100.00
52535;BME280;38443;53.164;5.802;2023-09-19T08:58:03;100714.63;;;17.29;100.00
52535;BME280;38443;53.164;5.802;2023-09-19T09:00:30;100719.31;;;17.41;100.00
52535;BME280;38443;53.164;5.802;2023-09-19T09:02:57;100722.34;;;17.51;100.00
52535;BME280;38443;53.164;5.802;2023-09-19T09:05:23;100715.16;;;17.50;100.00
52535;BME280;38443;53.164;5.802;2023-09-19T09:07:50;100715.38;;;17.47;100.00
52535;BME280;38443;53.164;5.802;2023-09-19T09:10:20;100708.00;;;17.34;100.00
52535;BME280;38443;53.164;5.802;2023-09-19T09:12:51;100715.59;;;17.28;100.00
52535;BME280;38443;53.164;5.802;2023-09-19T09:15:18;100719.59;;;17.37;100.00
52535;BME280;38443;53.164;5.802;2023-09-19T09:17:52;100702.59;;;17.34;100.00
52535;BME280;38443;53.164;5.802;2023-09-19T09:20:18;100704.56;;;17.47;100.00
52535;BME280;38443;53.164;5.802;2023-09-19T09:22:54;100692.25;;;17.41;100.00
52535;BME280;38443;53.164;5.802;2023-09-19T09:25:20;100699.94;;;17.63;100.00
52535;BME280;38443;53.164;5.802;2023-09-19T09:27:59;100688.03;;;17.66;100.00
52535;BME280;38443;53.164;5.802;2023-09-19T09:30:36;100691.72;;;17.65;100.00
52535;BME280;38443;53.164;5.802;2023-09-19T09:33:09;100700.41;;;17.55;100.00
52535;BME280;38443;53.164;5.802;2023-09-19T09:35:36;100699.38;;;17.58;100.00
52535;BME280;38443;53.164;5.802;2023-09-19T09:38:01;100709.28;;;17.43;100.00
52535;BME280;38443;53.164;5.802;2023-09-19T09:40:46;100694.75;;;17.30;100.00
52535;BME280;38443;53.164;5.802;2023-09-19T09:43:29;100702.59;;;17.34;100.00
52535;BME280;38443;53.164;5.802;2023-09-19T09:46:15;100693.50;;;17.35;100.00
52535;BME280;38443;53.164;5.802;2023-09-19T09:48:57;100697.44;;;17.60;100.00
52535;BME280;38443;53.164;5.802;2023-09-19T09:51:51;100687.19;;;17.65;100.00
52535;BME280;38443;53.164;5.802;2023-09-19T09:54:25;100692.59;;;17.65;100.00
52535;BME280;38443;53.164;5.802;2023-09-19T09:57:00;100661.97;;;17.65;100.00
52535;BME280;38443;53.164;5.802;2023-09-19T09:59:47;100684.63;;;17.48;100.00
52535;BME280;38443;53.164;5.802;2023-09-19T10:02:39;100669.16;;;17.50;100.00
52535;BME280;38443;53.164;5.802;2023-09-19T10:05:20;100673.09;;;17.60;100.00
52535;BME280;38443;53.164;5.802;2023-09-19T10:07:46;100671.53;;;17.70;100.00
52535;BME280;38443;53.164;5.802;2023-09-19T10:10:37;100651.53;;;17.73;100.00
52535;BME280;38443;53.164;5.802;2023-09-19T10:13:10;100674.44;;;17.82;100.00
52535;BME280;38443;53.164;5.802;2023-09-19T10:15:43;100656.16;;;17.71;100.00
52535;BME280;38443;53.164;5.802;2023-09-19T10:18:19;100656.53;;;17.65;100.00
52535;BME280;38443;53.164;5.802;2023-09-19T10:20:46;100678.38;;;17.62;100.00
52535;BME280;38443;53.164;5.802;2023-09-19T10:23:13;100662.72;;;17.52;100.00
52535;BME280;38443;53.164;5.802;2023-09-19T10:25:43;100676.34;;;17.51;100.00
52535;BME280;38443;53.164;5.802;2023-09-19T10:28:10;100669.66;;;17.42;100.00
52535;BME280;38443;53.164;5.802;2023-09-19T10:30:46;100645.94;;;17.31;100.00
52535;BME280;38443;53.164;5.802;2023-09-19T10:33:23;100653.28;;;17.29;100.00
52535;BME280;38443;53.164;5.802;2023-09-19T10:35:52;100668.56;;;17.30;100.00
52535;BME280;38443;53.164;5.802;2023-09-19T10:38:25;100648.44;;;17.20;100.00
52535;BME280;38443;53.164;5.802;2023-09-19T10:40:53;100647.44;;;17.07;100.00
52535;BME280;38443;53.164;5.802;2023-09-19T10:43:20;100641.78;;;16.95;100.00
52535;BME280;38443;53.164;5.802;2023-09-19T10:45:47;100625.75;;;16.92;100.00
52535;BME280;38443;53.164;5.802;2023-09-19T10:48:16;100647.03;;;16.83;100.00
52535;BME280;38443;53.164;5.802;2023-09-19T10:51:04;100644.16;;;16.70;100.00
52535;BME280;38443;53.164;5.802;2023-09-19T10:53:45;100642.94;;;16.60;100.00
52535;BME280;38443;53.164;5.802;2023-09-19T10:56:23;100631.88;;;16.64;100.00
52535;BME280;38443;53.164;5.802;2023-09-19T10:59:05;100652.59;;;16.80;100.00
52535;BME280;38443;53.164;5.802;2023-09-19T11:01:53;100623.25;;;17.04;100.00
52535;BME280;38443;53.164;5.802;2023-09-19T11:04:34;100631.44;;;17.18;100.00
52535;BME280;38443;53.164;5.802;2023-09-19T11:09:48;100631.91;;;17.10;100.00
52535;BME280;38443;53.164;5.802;2023-09-19T11:14:51;100626.38;;;16.82;100.00
52535;BME280;38443;53.164;5.802;2023-09-19T11:30:50;100608.56;;;16.78;100.00
52535;BME280;38443;53.164;5.802;2023-09-19T11:33:22;100608.91;;;16.71;100.00
52535;BME280;38443;53.164;5.802;2023-09-19T11:36:08;100595.19;;;16.60;100.00
52535;BME280;38443;53.164;5.802;2023-09-19T11:46:33;100650.47;;;15.89;100.00
52535;BME280;38443;53.164;5.802;2023-09-19T11:49:08;100684.78;;;15.52;100.00
52535;BME280;38443;53.164;5.802;2023-09-19T11:51:40;100712.31;;;15.24;100.00
52535;BME280;38443;53.164;5.802;2023-09-19T11:54:10;100702.38;;;15.07;100.00
52535;BME280;38443;53.164;5.802;2023-09-19T11:56:43;100718.66;;;15.06;100.00
52535;BME280;38443;53.164;5.802;2023-09-19T11:59:09;100718.66;;;15.06;100.00
52535;BME280;38443;53.164;5.802;2023-09-19T12:01:38;100711.25;;;15.09;100.00
52535;BME280;38443;53.164;5.802;2023-09-19T12:04:08;100711.91;;;15.14;100.00
52535;BME280;38443;53.164;5.802;2023-09-19T12:06:35;100714.47;;;15.35;100.00
52535;BME280;38443;53.164;5.802;2023-09-19T12:09:04;100714.16;;;15.59;100.00
52535;BME280;38443;53.164;5.802;2023-09-19T12:11:32;100706.53;;;15.84;100.00
52535;BME280;38443;53.164;5.802;2023-09-19T12:13:58;100687.84;;;15.97;100.00
52535;BME280;38443;53.164;5.802;2023-09-19T12:16:26;100665.69;;;16.08;100.00
52535;BME280;38443;53.164;5.802;2023-09-19T12:18:56;100672.47;;;16.15;100.00
52535;BME280;38443;53.164;5.802;2023-09-19T12:21:31;100647.94;;;16.20;100.00
52535;BME280;38443;53.164;5.802;2023-09-19T12:24:11;100622.38;;;16.25;100.00
52535;BME280;38443;53.164;5.802;2023-09-19T12:26:43;100621.09;;;16.32;100.00
52535;BME280;38443;53.164;5.802;2023-09-19T12:29:18;100625.28;;;16.38;100.00
52535;BME280;38443;53.164;5.802;2023-09-19T12:31:48;100615.25;;;16.40;100.00
52535;BME280;38443;53.164;5.802;2023-09-19T12:34:26;100618.31;;;16.34;100.00
52535;BME280;38443;53.164;5.802;2023-09-19T12:39:37;100613.59;;;16.22;100.00
52535;BME280;38443;53.164;5.802;2023-09-19T12:42:03;100600.88;;;16.08;100.00
52535;BME280;38443;53.164;5.802;2023-09-19T12:44:29;100622.72;;;16.03;100.00
52535;BME280;38443;53.164;5.802;2023-09-19T12:46:55;100638.38;;;15.97;100.00
52535;BME280;38443;53.164;5.802;2023-09-19T12:49:24;100636.00;;;15.74;100.00
52535;BME280;38443;53.164;5.802;2023-09-19T12:51:54;100662.50;;;15.49;100.00
52535;BME280;38443;53.164;5.802;2023-09-19T12:54:20;100663.47;;;15.30;100.00
52535;BME280;38443;53.164;5.802;2023-09-19T12:56:47;100654.41;;;15.31;100.00
52535;BME280;38443;53.164;5.802;2023-09-19T12:59:15;100660.06;;;15.44;100.00
52535;BME280;38443;53.164;5.802;2023-09-19T13:01:42;100662.88;;;15.59;100.00
52535;BME280;38443;53.164;5.802;2023-09-19T13:04:20;100653.28;;;15.70;100.00
52535;BME280;38443;53.164;5.802;2023-09-19T13:06:51;100638.28;;;15.82;100.00
52535;BME280;38443;53.164;5.802;2023-09-19T13:09:19;100626.34;;;15.86;100.00
52535;BME280;38443;53.164;5.802;2023-09-19T13:11:47;100630.00;;;15.85;100.00
52535;BME280;38443;53.164;5.802;2023-09-19T13:14:28;100621.81;;;15.87;100.00
52535;BME280;38443;53.164;5.802;2023-09-19T13:17:02;100618.78;;;15.93;100.00
52535;BME280;38443;53.164;5.802;2023-09-19T13:19:49;100622.72;;;16.03;100.00
52535;BME280;38443;53.164;5.802;2023-09-19T13:22:37;100603.81;;;16.03;100.00
52535;BME280;38443;53.164;5.802;2023-09-19T13:25:05;100605.81;;;16.15;100.00
52535;BME280;38443;53.164;5.802;2023-09-19T13:27:32;100593.38;;;16.29;100.00
52535;BME280;38443;53.164;5.802;2023-09-19T13:29:58;100601.81;;;16.39;100.00
52535;BME280;38443;53.164;5.802;2023-09-19T13:32:23;100599.97;;;16.55;100.00
52535;BME280;38443;53.164;5.802;2023-09-19T13:34:49;100595.25;;;16.59;100.00
52535;BME280;38443;53.164;5.802;2023-09-19T13:37:14;100588.88;;;16.60;100.00
52535;BME280;38443;53.164;5.802;2023-09-19T13:39:41;100581.84;;;16.57;100.00